Time;durP1;ratioP1;P1;durP2;ratioP2;P2;SDS_P1;SDS_P2;PMS_P1;PMS_P2;Temp;Humidity;BMP_temperature;BMP_pressure;BME280_temperature;BME280_humidity;BME280_pressure;Samples;Min_cycle;Max_cycle;Signal;HPM_P1;HPM_P2
2021/03/21 00:00:26;;;;;;;20.77;15.80;;;7.30;99.90;;;;;;5056480;28;20286;-74
2021/03/21 00:02:52;;;;;;;22.17;15.15;;;7.20;99.90;;;;;;5056374;28;20313;-75
2021/03/21 00:05:19;;;;;;;21.17;16.77;;;7.20;99.90;;;;;;5056227;28;20222;-74
2021/03/21 00:07:46;;;;;;;23.55;18.67;;;7.20;99.90;;;;;;5056309;28;20288;-74
2021/03/21 00:10:13;;;;;;;22.77;17.08;;;7.20;1.00;;;;;;5056253;28;20253;-74
2021/03/21 00:12:39;;;;;;;28.63;20.20;;;7.30;1.00;;;;;;5056226;28;20263;-75
2021/03/21 00:15:07;;;;;;;25.70;19.10;;;7.30;1.00;;;;;;5056026;28;20246;-76
2021/03/21 00:17:35;;;;;;;25.58;19.45;;;7.20;1.00;;;;;;5038614;28;20601;-74
2021/03/21 00:20:04;;;;;;;25.40;19.27;;;7.20;1.00;;;;;;5056048;28;20668;-75
2021/03/21 00:22:31;;;;;;;25.80;18.70;;;7.20;1.00;;;;;;5038782;28;20259;-75
2021/03/21 00:24:58;;;;;;;23.88;17.70;;;7.20;1.00;;;;;;5055763;28;20310;-75
2021/03/21 00:27:24;;;;;;;29.98;19.88;;;7.10;1.00;;;;;;5055962;28;20289;-76
2021/03/21 00:29:51;;;;;;;24.70;18.55;;;7.10;1.00;;;;;;5055894;28;20233;-75
2021/03/21 00:32:17;;;;;;;25.15;17.85;;;7.10;1.00;;;;;;5055913;28;20199;-75
2021/03/21 00:34:45;;;;;;;27.17;18.65;;;7.10;1.00;;;;;;5055548;28;20291;-73
2021/03/21 00:37:11;;;;;;;23.92;18.98;;;7.10;1.00;;;;;;5055426;28;20319;-76
2021/03/21 00:39:38;;;;;;;25.33;18.98;;;7.10;1.00;;;;;;5055712;28;20199;-76
2021/03/21 00:42:05;;;;;;;26.55;18.88;;;7.10;1.00;;;;;;5055606;28;20216;-75
2021/03/21 00:44:32;;;;;;;23.15;18.50;;;7.00;1.00;;;;;;5055490;28;20239;-76
2021/03/21 00:46:58;;;;;;;28.70;20.75;;;7.10;1.00;;;;;;5056118;28;20724;-74
2021/03/21 00:49:25;;;;;;;25.08;18.75;;;7.10;1.00;;;;;;5055492;28;20626;-75
2021/03/21 00:51:52;;;;;;;23.80;17.77;;;7.00;1.00;;;;;;5056183;28;20222;-75
2021/03/21 00:54:19;;;;;;;25.17;20.08;;;7.00;1.00;;;;;;5055432;28;20657;-75
2021/03/21 00:56:46;;;;;;;23.73;18.02;;;7.00;1.00;;;;;;5055125;28;20292;-76
2021/03/21 00:59:12;;;;;;;27.70;18.88;;;7.10;4.00;;;;;;5055182;28;20727;-75
2021/03/21 01:01:39;;;;;;;25.63;19.65;;;7.20;87.30;;;;;;5055249;28;20195;-74
2021/03/21 01:04:06;;;;;;;24.25;17.48;;;7.10;27.50;;;;;;5055437;28;20230;-75
2021/03/21 01:06:33;;;;;;;22.67;17.23;;;7.10;16.80;;;;;;5055232;28;20285;-76
2021/03/21 01:09:07;;;;;;;21.40;16.90;;;7.10;1.00;;;;;;5055090;28;20227;-75
2021/03/21 01:11:36;;;;;;;21.05;16.42;;;7.10;99.90;;;;;;5055063;28;20273;-76
2021/03/21 01:14:04;;;;;;;22.15;16.63;;;7.00;99.90;;;;;;5021336;28;20273;-74
2021/03/21 01:16:33;;;;;;;23.30;17.65;;;7.00;1.00;;;;;;5054441;28;20286;-75
2021/03/21 01:19:00;;;;;;;26.27;19.00;;;7.20;99.90;;;;;;5054930;28;20285;-74
2021/03/21 01:21:28;;;;;;;28.02;19.25;;;7.20;1.00;;;;;;5055182;28;20205;-74
2021/03/21 01:23:55;;;;;;;27.33;20.10;;;7.20;1.00;;;;;;5020804;28;20324;-73
2021/03/21 01:26:25;;;;;;;26.98;19.85;;;7.10;1.00;;;;;;5054848;28;20195;-75
2021/03/21 01:28:54;;;;;;;33.60;20.90;;;7.10;1.00;;;;;;5037348;28;20286;-76
2021/03/21 01:31:23;;;;;;;26.63;19.20;;;7.10;98.60;;;;;;5054681;28;20201;-73
2021/03/21 01:33:50;;;;;;;28.85;20.45;;;7.00;99.90;;;;;;5054480;28;20700;-74
2021/03/21 01:36:19;;;;;;;25.92;18.52;;;7.00;99.90;;;;;;5054617;28;20199;-76
2021/03/21 01:38:46;;;;;;;30.75;19.67;;;6.90;1.00;;;;;;5036475;28;20317;-75
2021/03/21 01:41:17;;;;;;;29.73;19.35;;;6.80;99.90;;;;;;5055057;28;20632;-75
2021/03/21 01:43:45;;;;;;;25.80;19.10;;;6.80;13.30;;;;;;5036672;28;20256;-74
2021/03/21 01:46:19;;;;;;;26.10;18.35;;;6.80;1.00;;;;;;5036887;28;20229;-73
2021/03/21 01:48:49;;;;;;;23.95;17.73;;;6.70;1.00;;;;;;5037227;28;20443;-73
2021/03/21 01:51:21;;;;;;;24.80;18.60;;;6.70;1.00;;;;;;5037116;28;20625;-75
2021/03/21 01:53:51;;;;;;;27.10;18.17;;;6.60;1.00;;;;;;5054142;28;20567;-75
2021/03/21 01:56:18;;;;;;;22.75;15.77;;;6.60;1.00;;;;;;5038227;28;20290;-74
2021/03/21 01:58:49;;;;;;;23.60;16.08;;;6.60;10.80;;;;;;5054091;28;20289;-75
2021/03/21 02:01:17;;;;;;;23.50;16.77;;;6.60;99.90;;;;;;5036544;28;20598;-75
2021/03/21 02:03:44;;;;;;;26.02;18.48;;;6.60;99.90;;;;;;5020276;28;20320;-74
2021/03/21 02:06:29;;;;;;;25.10;16.90;;;6.50;99.90;;;;;;5054042;28;20191;-74
2021/03/21 02:09:04;;;;;;;24.00;16.25;;;6.60;99.90;;;;;;5036384;28;20289;-74
2021/03/21 02:11:39;;;;;;;23.15;15.15;;;6.60;99.90;;;;;;5036459;28;20250;-74
2021/03/21 02:14:13;;;;;;;23.45;17.13;;;6.50;99.90;;;;;;5053860;28;20683;-75
2021/03/21 02:16:42;;;;;;;20.60;15.52;;;6.50;99.90;;;;;;5053910;28;20289;-74
2021/03/21 02:19:30;;;;;;;21.08;15.60;;;6.50;99.90;;;;;;5053915;28;20281;-75
2021/03/21 02:22:01;;;;;;;19.63;13.95;;;6.50;99.90;;;;;;5054527;28;20289;-74
2021/03/21 02:25:00;;;;;;;21.25;15.27;;;6.40;99.90;;;;;;5053618;28;20682;-74
2021/03/21 02:27:45;;;;;;;18.83;14.05;;;6.40;99.90;;;;;;5053102;28;20210;-74
2021/03/21 02:30:18;;;;;;;18.17;14.23;;;6.40;99.90;;;;;;5037449;28;20205;-75
2021/03/21 02:32:52;;;;;;;20.98;14.80;;;6.30;99.90;;;;;;5053761;28;20233;-74
2021/03/21 02:35:24;;;;;;;17.35;13.15;;;6.30;99.90;;;;;;5036419;28;20236;-74
2021/03/21 02:37:58;;;;;;;19.23;14.32;;;6.30;99.90;;;;;;5019828;28;20317;-73
2021/03/21 02:40:32;;;;;;;22.58;15.40;;;6.30;99.90;;;;;;5053642;28;20201;-74
2021/03/21 02:43:04;;;;;;;21.40;13.82;;;6.30;99.90;;;;;;5036538;28;20270;-75
2021/03/21 02:45:34;;;;;;;22.08;15.07;;;6.30;1.00;;;;;;5053520;28;20324;-73
2021/03/21 02:48:09;;;;;;;21.25;15.30;;;6.30;1.00;;;;;;5053629;28;20285;-74
2021/03/21 02:50:41;;;;;;;20.20;14.57;;;6.30;1.00;;;;;;5035826;28;20280;-74
2021/03/21 02:53:12;;;;;;;18.15;14.15;;;6.30;1.00;;;;;;5036427;28;20222;-73
2021/03/21 02:55:44;;;;;;;23.40;15.48;;;6.30;1.00;;;;;;5036018;28;20261;-74
2021/03/21 02:58:14;;;;;;;20.50;14.77;;;6.30;1.00;;;;;;5019843;28;20194;-75
2021/03/21 03:00:46;;;;;;;19.77;13.70;;;6.40;1.00;;;;;;5053321;28;20290;-74
2021/03/21 03:03:16;;;;;;;17.95;13.98;;;6.30;1.00;;;;;;5036308;28;20349;-74
2021/03/21 03:05:45;;;;;;;17.63;12.07;;;6.30;1.00;;;;;;5035729;28;20752;-74
2021/03/21 03:08:15;;;;;;;16.58;13.20;;;6.30;1.00;;;;;;5053369;28;20205;-74
2021/03/21 03:10:46;;;;;;;17.02;12.38;;;6.30;1.00;;;;;;5053312;28;20281;-75
2021/03/21 03:13:19;;;;;;;16.27;12.63;;;6.30;1.00;;;;;;5053776;28;20256;-74
2021/03/21 03:15:47;;;;;;;15.82;11.70;;;6.30;1.00;;;;;;5019840;28;20246;-74
2021/03/21 03:18:23;;;;;;;19.52;12.20;;;6.30;1.00;;;;;;5035597;28;20297;-74
2021/03/21 03:20:53;;;;;;;14.18;11.95;;;6.30;1.00;;;;;;5053262;28;20191;-74
2021/03/21 03:23:28;;;;;;;14.82;11.25;;;6.30;1.00;;;;;;5035522;28;20222;-74
2021/03/21 03:26:03;;;;;;;14.35;10.45;;;6.30;1.00;;;;;;5053266;28;20214;-75
2021/03/21 03:28:34;;;;;;;16.45;11.07;;;6.30;1.00;;;;;;5053153;28;20284;-73
2021/03/21 03:31:08;;;;;;;22.17;12.63;;;6.30;1.00;;;;;;5035851;28;20302;-74
2021/03/21 03:33:36;;;;;;;15.73;11.23;;;6.30;1.00;;;;;;5052971;28;20251;-73
2021/03/21 03:36:04;;;;;;;15.52;11.60;;;6.20;1.00;;;;;;5019902;28;20592;-74
2021/03/21 03:38:31;;;;;;;16.88;12.10;;;6.20;1.00;;;;;;5053197;28;20261;-74
2021/03/21 03:41:06;;;;;;;17.17;12.60;;;6.30;1.00;;;;;;5056846;28;20707;-74
2021/03/21 03:43:44;;;;;;;14.73;11.68;;;6.30;1.00;;;;;;5038950;28;20222;-73
2021/03/21 03:46:17;;;;;;;17.42;13.27;;;6.30;1.00;;;;;;5056769;28;20614;-74
2021/03/21 03:48:54;;;;;;;15.88;11.98;;;6.30;1.00;;;;;;5039053;28;20559;-75
2021/03/21 03:51:29;;;;;;;16.90;13.10;;;6.30;1.00;;;;;;5056486;28;20675;-74
2021/03/21 03:54:08;;;;;;;18.85;12.85;;;6.30;1.00;;;;;;5038549;28;20222;-74
2021/03/21 03:56:47;;;;;;;18.00;13.57;;;6.30;1.00;;;;;;5057049;28;20684;-74
2021/03/21 03:59:28;;;;;;;21.08;14.20;;;6.30;1.00;;;;;;5056543;28;20226;-74
2021/03/21 04:02:01;;;;;;;19.80;14.23;;;6.30;1.00;;;;;;5056232;28;20268;-73
2021/03/21 04:04:36;;;;;;;20.42;14.65;;;6.30;1.00;;;;;;5039079;28;20313;-75
2021/03/21 04:07:17;;;;;;;19.70;13.75;;;6.30;1.00;;;;;;5039300;28;20593;-73
2021/03/21 04:09:51;;;;;;;19.52;13.82;;;6.30;1.00;;;;;;5056480;28;20289;-74
2021/03/21 04:12:26;;;;;;;19.90;14.25;;;6.30;1.00;;;;;;5039283;28;20652;-75
2021/03/21 04:14:57;;;;;;;19.10;13.50;;;6.20;1.00;;;;;;5056137;28;20218;-74
2021/03/21 04:17:31;;;;;;;18.45;12.98;;;6.20;1.00;;;;;;5038527;28;20293;-74
2021/03/21 04:20:05;;;;;;;18.00;13.65;;;6.20;1.00;;;;;;5056135;28;20205;-73
2021/03/21 04:22:35;;;;;;;20.65;14.10;;;6.20;1.00;;;;;;5038469;28;20277;-73
2021/03/21 04:25:08;;;;;;;20.42;14.00;;;6.30;1.00;;;;;;5055877;28;20753;-74
2021/03/21 04:27:39;;;;;;;19.50;13.90;;;6.30;1.00;;;;;;5056055;28;20289;-74
2021/03/21 04:30:11;;;;;;;20.88;13.00;;;6.30;1.00;;;;;;5055936;28;20205;-75
2021/03/21 04:32:42;;;;;;;18.65;12.35;;;6.20;1.00;;;;;;5055908;28;20595;-74
2021/03/21 04:35:13;;;;;;;19.33;12.30;;;6.30;1.00;;;;;;5055970;28;20301;-74
2021/03/21 04:37:43;;;;;;;19.52;12.57;;;6.40;1.00;;;;;;5055228;28;20226;-75
2021/03/21 04:40:12;;;;;;;16.52;11.23;;;6.30;1.00;;;;;;5055786;28;20740;-75
2021/03/21 04:42:43;;;;;;;18.80;12.75;;;6.30;1.00;;;;;;5055616;28;20199;-75
2021/03/21 04:45:14;;;;;;;16.90;12.02;;;6.30;1.00;;;;;;5038217;28;20218;-75
2021/03/21 04:47:45;;;;;;;15.65;11.15;;;6.30;1.00;;;;;;5038156;28;20234;-73
2021/03/21 04:50:12;;;;;;;19.00;12.13;;;6.30;1.00;;;;;;5054632;28;20290;-74
2021/03/21 04:52:43;;;;;;;18.30;12.90;;;6.20;1.00;;;;;;5055424;28;20288;-73
2021/03/21 04:55:14;;;;;;;17.35;11.80;;;6.20;10.30;;;;;;5038618;28;20257;-74
2021/03/21 04:57:45;;;;;;;18.90;12.80;;;6.30;41.10;;;;;;5037844;28;20289;-74
2021/03/21 05:00:20;;;;;;;15.07;9.75;;;6.30;37.50;;;;;;5055785;28;20234;-75
2021/03/21 05:02:52;;;;;;;15.77;10.80;;;6.20;21.50;;;;;;5038400;28;20229;-75
2021/03/21 05:05:27;;;;;;;16.80;11.60;;;6.20;38.60;;;;;;5038085;28;20225;-75
2021/03/21 05:07:57;;;;;;;16.25;11.18;;;6.20;55.10;;;;;;5055238;28;20216;-74
2021/03/21 05:10:30;;;;;;;15.95;11.95;;;6.20;69.40;;;;;;5037909;28;20652;-75
2021/03/21 05:13:02;;;;;;;14.95;10.32;;;6.20;88.00;;;;;;5055000;28;20285;-74
2021/03/21 05:15:32;;;;;;;18.63;12.27;;;6.20;99.90;;;;;;5054847;28;20572;-74
2021/03/21 05:18:12;;;;;;;14.98;10.60;;;6.30;99.90;;;;;;5054999;28;20289;-74
2021/03/21 05:20:44;;;;;;;20.75;11.95;;;6.20;99.90;;;;;;5054990;28;20289;-74
2021/03/21 05:23:26;;;;;;;16.85;12.52;;;6.20;99.90;;;;;;5054856;28;20574;-74
2021/03/21 05:25:56;;;;;;;20.60;13.75;;;6.30;99.90;;;;;;5054846;28;20305;-74
2021/03/21 05:28:39;;;;;;;22.75;14.60;;;6.30;99.90;;;;;;5037082;28;20281;-75
2021/03/21 05:31:06;;;;;;;20.40;14.20;;;6.20;99.90;;;;;;5054820;28;20240;-75
2021/03/21 05:33:33;;;;;;;23.83;14.43;;;6.20;99.90;;;;;;5054508;28;20300;-75
2021/03/21 05:36:10;;;;;;;22.95;14.15;;;6.20;99.90;;;;;;5054577;28;20203;-74
2021/03/21 05:38:43;;;;;;;22.13;14.27;;;6.20;99.90;;;;;;5054415;28;20226;-74
2021/03/21 05:41:42;;;;;;;27.27;15.18;;;6.20;99.90;;;;;;5037279;28;20199;-74
2021/03/21 05:44:36;;;;;;;24.83;14.82;;;6.30;99.90;;;;;;5054249;28;20309;-75
2021/03/21 05:47:19;;;;;;;26.85;14.20;;;6.30;99.90;;;;;;5054808;28;20290;-74
2021/03/21 05:50:11;;;;;;;23.92;14.38;;;6.30;99.90;;;;;;5036677;28;20204;-75
2021/03/21 05:53:06;;;;;;;24.80;14.88;;;6.20;99.90;;;;;;5038824;28;20285;-75
2021/03/21 05:55:45;;;;;;;26.85;16.00;;;6.20;99.90;;;;;;5054294;28;20250;-75
2021/03/21 05:58:38;;;;;;;29.10;15.40;;;6.20;99.90;;;;;;5036590;28;20339;-74
2021/03/21 06:01:27;;;;;;;27.92;15.73;;;6.30;99.90;;;;;;5038850;28;20696;-75
2021/03/21 06:04:19;;;;;;;28.95;16.02;;;6.30;99.90;;;;;;5054683;28;20392;-73
2021/03/21 06:07:10;;;;;;;26.40;16.33;;;6.30;99.90;;;;;;5054209;28;20766;-75
2021/03/21 06:09:52;;;;;;;31.00;17.17;;;6.30;99.90;;;;;;5054624;28;20293;-73
2021/03/21 06:12:36;;;;;;;29.77;17.05;;;6.30;99.90;;;;;;5054088;28;20310;-75
2021/03/21 06:15:29;;;;;;;32.67;17.42;;;6.30;99.90;;;;;;5053951;28;20228;-74
2021/03/21 06:18:07;;;;;;;33.97;18.08;;;6.30;99.90;;;;;;5053807;28;20290;-76
2021/03/21 06:20:51;;;;;;;31.45;16.88;;;6.30;99.90;;;;;;5020482;28;20251;-74
2021/03/21 06:23:45;;;;;;;31.90;17.52;;;6.30;99.90;;;;;;5036090;28;20308;-76
2021/03/21 06:26:19;;;;;;;34.30;18.80;;;6.30;99.90;;;;;;5053645;28;20285;-76
2021/03/21 06:29:08;;;;;;;30.52;17.73;;;6.20;99.90;;;;;;5036125;28;20292;-75
2021/03/21 06:31:58;;;;;;;31.17;17.83;;;6.20;99.90;;;;;;5053600;28;20277;-75
2021/03/21 06:34:33;;;;;;;34.38;18.30;;;6.30;99.90;;;;;;5053400;28;20264;-73
2021/03/21 06:37:06;;;;;;;34.45;17.92;;;6.30;99.90;;;;;;5036066;28;20308;-75
2021/03/21 06:40:01;;;;;;;34.95;20.20;;;6.30;99.90;;;;;;5035812;28;20661;-75
2021/03/21 06:42:46;;;;;;;34.72;18.60;;;6.30;99.90;;;;;;5019672;28;20282;-74
2021/03/21 06:45:42;;;;;;;41.60;19.80;;;6.30;99.90;;;;;;5033438;28;20219;-76
2021/03/21 06:48:22;;;;;;;32.13;19.38;;;6.40;99.90;;;;;;5032715;28;20221;-73
2021/03/21 06:50:59;;;;;;;37.33;19.13;;;6.40;99.90;;;;;;5033488;28;20648;-75
2021/03/21 06:53:33;;;;;;;37.00;19.70;;;6.40;99.90;;;;;;5027884;28;20206;-75
2021/03/21 06:56:17;;;;;;;32.50;19.25;;;6.40;99.90;;;;;;5019846;28;20278;-75
2021/03/21 06:59:14;;;;;;;35.08;21.25;;;6.50;1.00;;;;;;5033461;28;20274;-75
2021/03/21 07:01:45;;;;;;;33.20;18.70;;;6.50;99.90;;;;;;5033183;28;20191;-74
2021/03/21 07:04:40;;;;;;;30.33;18.13;;;6.50;99.90;;;;;;5033286;28;20281;-74
2021/03/21 07:07:36;;;;;;;31.92;17.98;;;6.50;99.90;;;;;;5031941;28;20191;-75
2021/03/21 07:10:28;;;;;;;40.05;19.35;;;6.60;99.90;;;;;;5019301;28;20278;-74
2021/03/21 07:13:26;;;;;;;36.67;18.90;;;6.70;99.90;;;;;;5017785;28;20270;-74
2021/03/21 07:16:13;;;;;;;30.48;17.75;;;6.70;99.90;;;;;;5021767;28;20308;-74
2021/03/21 07:19:09;;;;;;;28.95;17.83;;;6.70;99.90;;;;;;5036824;28;20198;-76
2021/03/21 07:22:05;;;;;;;32.28;18.20;;;6.70;99.90;;;;;;5023762;28;20282;-75
2021/03/21 07:25:04;;;;;;;33.97;19.90;;;6.60;99.90;;;;;;5020906;28;20310;-74
2021/03/21 07:27:45;;;;;;;29.77;17.77;;;6.70;99.90;;;;;;5037039;28;20279;-72
2021/03/21 07:30:18;;;;;;;29.17;18.10;;;6.60;99.90;;;;;;5037128;28;20286;-74
2021/03/21 07:33:14;;;;;;;35.60;19.98;;;6.70;99.90;;;;;;5037136;28;20257;-74
2021/03/21 07:35:56;;;;;;;37.35;19.08;;;6.70;99.90;;;;;;5022426;28;20309;-74
2021/03/21 07:38:38;;;;;;;33.67;19.15;;;6.80;99.90;;;;;;5029222;28;20356;-74
2021/03/21 07:41:12;;;;;;;33.50;19.25;;;6.80;99.90;;;;;;5040818;28;20278;-74
2021/03/21 07:44:02;;;;;;;30.27;19.40;;;6.80;99.90;;;;;;5024948;28;20315;-73
2021/03/21 07:46:51;;;;;;;29.83;18.75;;;6.90;99.90;;;;;;5041426;28;20245;-73
2021/03/21 07:49:47;;;;;;;30.17;15.82;;;6.90;99.90;;;;;;5049022;28;20187;-74
2021/03/21 07:52:30;;;;;;;30.65;16.92;;;7.00;1.00;;;;;;5029603;28;20226;-75
2021/03/21 07:55:04;;;;;;;23.05;14.98;;;7.10;99.90;;;;;;5044100;28;20567;-74
2021/03/21 07:57:43;;;;;;;24.83;15.38;;;7.10;99.90;;;;;;5053297;28;20712;-74
2021/03/21 08:00:12;;;;;;;23.65;14.70;;;7.10;99.90;;;;;;5040966;28;20282;-73
2021/03/21 08:02:39;;;;;;;20.25;13.38;;;7.10;99.90;;;;;;5026811;28;20284;-73
2021/03/21 08:05:13;;;;;;;20.40;13.38;;;7.20;99.90;;;;;;5052625;28;20661;-73
2021/03/21 08:07:43;;;;;;;22.15;14.25;;;7.20;99.90;;;;;;5034730;28;20259;-72
2021/03/21 08:10:22;;;;;;;20.52;12.40;;;7.30;99.90;;;;;;5047742;28;20576;-73
2021/03/21 08:12:56;;;;;;;19.52;12.70;;;7.30;99.90;;;;;;5049925;28;20279;-73
2021/03/21 08:15:24;;;;;;;17.60;11.23;;;7.30;99.90;;;;;;5039247;28;20631;-73
2021/03/21 08:17:55;;;;;;;20.48;11.20;;;7.30;99.90;;;;;;5030731;28;20289;-73
2021/03/21 08:20:25;;;;;;;14.82;10.48;;;7.30;99.90;;;;;;5035413;28;20574;-73
2021/03/21 08:23:01;;;;;;;15.05;10.63;;;7.40;1.00;;;;;;5035831;28;20292;-73
2021/03/21 08:25:30;;;;;;;17.80;11.48;;;7.40;1.00;;;;;;5034694;28;20306;-75
2021/03/21 08:27:58;;;;;;;19.30;11.05;;;7.50;1.00;;;;;;5017543;28;20255;-73
2021/03/21 08:30:27;;;;;;;14.80;9.27;;;7.50;1.00;;;;;;5017550;28;20288;-73
2021/03/21 08:32:58;;;;;;;15.88;10.02;;;7.60;99.90;;;;;;5017254;28;20282;-73
2021/03/21 08:35:26;;;;;;;13.38;9.38;;;7.60;99.90;;;;;;5017478;28;20302;-74
2021/03/21 08:37:55;;;;;;;12.75;8.48;;;7.60;99.90;;;;;;5001325;28;20216;-74
2021/03/21 08:40:28;;;;;;;13.10;7.63;;;7.70;99.90;;;;;;5018559;28;20200;-73
2021/03/21 08:43:09;;;;;;;13.25;8.43;;;7.70;99.90;;;;;;5035566;28;20279;-75
2021/03/21 08:45:38;;;;;;;13.95;8.65;;;7.80;99.90;;;;;;5016406;28;20262;-74
2021/03/21 08:48:30;;;;;;;10.63;7.70;;;7.70;1.00;;;;;;5018317;28;20197;-73
2021/03/21 08:50:59;;;;;;;12.68;8.00;;;7.70;1.00;;;;;;5022028;28;20201;-73
2021/03/21 08:53:31;;;;;;;11.52;7.75;;;7.90;99.90;;;;;;5017417;28;20552;-74
2021/03/21 08:56:12;;;;;;;14.15;7.63;;;7.90;99.90;;;;;;5033857;28;20286;-75
2021/03/21 08:58:38;;;;;;;10.10;6.97;;;7.90;99.90;;;;;;5017958;28;20276;-74
2021/03/21 09:01:12;;;;;;;13.48;7.65;;;7.90;99.90;;;;;;5035524;28;20279;-74
2021/03/21 09:03:39;;;;;;;13.38;7.35;;;7.90;99.90;;;;;;5034797;28;20307;-73
2021/03/21 09:06:06;;;;;;;13.25;6.30;;;7.90;1.00;;;;;;5017940;28;20286;-75
2021/03/21 09:08:34;;;;;;;8.05;5.95;;;8.00;1.00;;;;;;5035274;28;20289;-74
2021/03/21 09:11:04;;;;;;;9.02;5.25;;;8.00;99.90;;;;;;5017636;28;20291;-74
2021/03/21 09:13:33;;;;;;;8.38;5.43;;;8.00;99.90;;;;;;5035155;28;20197;-74
2021/03/21 09:16:03;;;;;;;10.70;6.53;;;8.00;99.90;;;;;;5017708;28;20227;-74
2021/03/21 09:18:32;;;;;;;12.73;5.97;;;8.00;99.90;;;;;;5017865;28;20225;-74
2021/03/21 09:21:15;;;;;;;9.60;6.18;;;7.90;99.90;;;;;;5016616;28;20467;-73
2021/03/21 09:23:46;;;;;;;6.43;4.60;;;8.00;1.00;;;;;;4999072;28;20213;-74
2021/03/21 09:26:29;;;;;;;7.22;6.28;;;8.10;1.00;;;;;;4998069;28;20205;-74
2021/03/21 09:28:59;;;;;;;5.57;4.25;;;8.10;99.90;;;;;;4998488;28;20290;-74
2021/03/21 09:31:26;;;;;;;5.30;4.07;;;8.10;99.90;;;;;;5015049;28;20290;-75
2021/03/21 09:34:00;;;;;;;7.75;4.05;;;8.20;99.90;;;;;;5015029;28;20318;-75
2021/03/21 09:36:32;;;;;;;6.57;3.10;;;8.20;1.00;;;;;;5014614;28;20201;-75
2021/03/21 09:39:02;;;;;;;3.53;2.88;;;8.20;99.90;;;;;;4981954;28;20202;-76
2021/03/21 09:41:29;;;;;;;5.33;2.73;;;8.20;1.00;;;;;;4997469;28;20593;-75
2021/03/21 09:44:01;;;;;;;3.33;2.53;;;8.30;99.90;;;;;;5014713;28;20571;-75
2021/03/21 09:46:38;;;;;;;3.40;2.77;;;8.30;1.00;;;;;;4997855;28;20527;-75
2021/03/21 09:49:13;;;;;;;3.03;1.90;;;8.30;99.90;;;;;;5014673;28;20441;-76
2021/03/21 09:51:46;;;;;;;2.33;1.37;;;8.20;99.90;;;;;;5030041;28;20236;-75
2021/03/21 09:54:22;;;;;;;1.97;1.80;;;8.20;99.90;;;;;;5016849;28;20895;-75
2021/03/21 09:56:54;;;;;;;2.77;2.30;;;8.20;99.90;;;;;;5033847;28;20527;-75
2021/03/21 09:59:35;;;;;;;4.15;2.88;;;8.30;99.90;;;;;;5033958;28;20528;-76
2021/03/21 10:02:11;;;;;;;4.00;2.45;;;8.30;25.10;;;;;;5029512;28;20236;-76
2021/03/21 10:04:44;;;;;;;3.90;2.63;;;8.30;88.20;;;;;;5030218;28;20238;-75
2021/03/21 10:07:20;;;;;;;4.85;2.95;;;8.30;91.70;;;;;;5030540;28;21010;-74
2021/03/21 10:09:49;;;;;;;4.20;3.30;;;8.30;35.90;;;;;;5030499;28;20282;-73
2021/03/21 10:12:16;;;;;;;6.75;3.97;;;8.20;99.90;;;;;;5029926;28;20220;-75
2021/03/21 10:14:58;;;;;;;11.65;4.22;;;8.20;1.00;;;;;;5029907;28;20316;-74
2021/03/21 10:17:40;;;;;;;7.20;3.70;;;8.20;1.00;;;;;;5014294;28;20271;-73
2021/03/21 10:20:08;;;;;;;5.85;3.90;;;8.10;99.90;;;;;;5029604;28;20539;-74
2021/03/21 10:22:52;;;;;;;10.50;3.90;;;8.10;99.90;;;;;;5030072;28;20193;-73
2021/03/21 10:25:49;;;;;;;10.73;3.80;;;8.10;99.90;;;;;;5014740;28;20323;-74
2021/03/21 10:28:31;;;;;;;4.90;3.47;;;8.10;99.90;;;;;;5014720;28;20449;-74
2021/03/21 10:31:27;;;;;;;12.50;3.30;;;8.20;99.90;;;;;;5014696;28;20202;-75
2021/03/21 10:33:56;;;;;;;5.87;3.23;;;8.30;99.90;;;;;;5014241;28;20569;-75
2021/03/21 10:36:42;;;;;;;13.50;4.47;;;8.40;99.90;;;;;;5029738;28;20441;-74
2021/03/21 10:39:11;;;;;;;6.97;3.60;;;8.40;99.90;;;;;;5012031;28;20539;-74
2021/03/21 10:41:56;;;;;;;9.67;3.47;;;8.50;61.20;;;;;;5014943;28;20442;-74
2021/03/21 10:44:38;;;;;;;8.47;2.80;;;8.60;1.00;;;;;;5031949;28;20485;-75
2021/03/21 10:47:09;;;;;;;7.50;3.00;;;8.70;1.00;;;;;;5018013;28;20478;-74
2021/03/21 10:49:51;;;;;;;9.27;2.70;;;8.70;1.00;;;;;;5015996;28;20433;-75
2021/03/21 10:52:27;;;;;;;12.30;3.20;;;8.70;1.00;;;;;;5001712;28;20531;-75
2021/03/21 10:55:23;;;;;;;13.20;3.20;;;8.70;1.00;;;;;;5015503;28;20472;-74
2021/03/21 10:57:52;;;;;;;13.43;3.67;;;8.60;1.00;;;;;;5019426;28;21021;-75
2021/03/21 11:00:22;;;;;;;12.70;3.50;;;8.60;1.00;;;;;;5016079;28;20858;-74
2021/03/21 11:02:51;;;;;;;12.00;3.10;;;8.60;1.00;;;;;;5016829;28;20491;-74
2021/03/21 11:05:27;;;;;;;10.63;3.57;;;8.60;1.00;;;;;;5015849;28;20558;-75
2021/03/21 11:08:15;;;;;;;5.23;2.73;;;8.60;1.00;;;;;;5015258;28;20475;-75
2021/03/21 11:10:44;;;;;;;10.85;3.25;;;8.60;1.00;;;;;;5002706;28;20433;-75
2021/03/21 11:13:14;;;;;;;11.55;3.15;;;8.60;1.00;;;;;;5033441;28;20285;-74
2021/03/21 11:15:44;;;;;;;21.77;4.07;;;8.50;1.00;;;;;;5033144;28;20226;-74
2021/03/21 11:18:24;;;;;;;6.07;3.20;;;8.50;1.00;;;;;;5033089;28;20901;-74
2021/03/21 11:21:02;;;;;;;14.63;3.17;;;8.50;1.00;;;;;;5016427;28;20439;-75
2021/03/21 11:23:29;;;;;;;12.90;3.47;;;8.50;1.00;;;;;;5015075;28;20491;-74
2021/03/21 11:25:56;;;;;;;9.73;3.90;;;8.50;1.00;;;;;;5032817;28;21033;-74
2021/03/21 11:28:35;;;;;;;9.27;3.80;;;8.60;1.00;;;;;;5033355;28;20509;-75
2021/03/21 11:31:02;;;;;;;13.47;4.53;;;8.60;1.00;;;;;;5017225;28;20914;-74
2021/03/21 11:33:34;;;;;;;11.53;4.20;;;8.70;1.00;;;;;;5033250;28;20436;-75
2021/03/21 11:36:10;;;;;;;6.00;2.97;;;8.70;1.00;;;;;;4999857;28;20434;-75
2021/03/21 11:38:40;;;;;;;6.00;3.00;;;8.70;1.00;;;;;;5033056;28;20560;-74
2021/03/21 11:41:23;;;;;;;12.57;2.80;;;8.80;1.00;;;;;;5033251;28;20862;-75
2021/03/21 11:43:51;;;;;;;10.10;2.90;;;8.80;1.00;;;;;;5015024;28;20513;-75
2021/03/21 11:46:28;;;;;;;8.83;3.20;;;8.80;1.00;;;;;;5032923;28;20547;-75
2021/03/21 11:48:57;;;;;;;11.30;3.20;;;8.80;1.00;;;;;;5033023;28;20542;-76
2021/03/21 11:51:24;;;;;;;19.43;4.17;;;8.80;1.00;;;;;;5033046;28;20436;-74
2021/03/21 11:53:51;;;;;;;17.33;3.60;;;8.80;99.90;;;;;;5032818;28;20608;-75
2021/03/21 11:56:22;;;;;;;13.67;3.50;;;8.80;99.90;;;;;;5032894;28;20520;-74
2021/03/21 11:58:54;;;;;;;16.60;3.47;;;8.70;99.90;;;;;;5033036;28;20919;-75
2021/03/21 12:01:30;;;;;;;9.73;3.30;;;8.70;99.90;;;;;;5035611;28;20468;-74
2021/03/21 12:04:00;;;;;;;15.77;4.00;;;8.70;99.90;;;;;;5036026;28;20483;-74
2021/03/21 12:06:33;;;;;;;15.30;4.27;;;8.70;99.90;;;;;;5035897;28;20598;-74
2021/03/21 12:09:12;;;;;;;13.47;3.60;;;8.70;99.90;;;;;;5017848;28;20532;-75
2021/03/21 12:11:41;;;;;;;17.07;3.60;;;8.70;99.90;;;;;;5035939;28;20434;-74
2021/03/21 12:14:37;;;;;;;12.37;3.50;;;8.80;99.90;;;;;;5018773;28;20552;-75
2021/03/21 12:17:30;;;;;;;12.13;3.33;;;8.80;99.90;;;;;;5035342;28;20466;-74
2021/03/21 12:19:59;;;;;;;9.30;3.67;;;9.00;99.90;;;;;;5022180;28;20968;-74
2021/03/21 12:22:30;;;;;;;11.80;4.40;;;9.00;99.90;;;;;;5035844;28;20477;-74
2021/03/21 12:24:58;;;;;;;10.90;3.37;;;9.10;99.90;;;;;;5018869;28;20583;-74
2021/03/21 12:27:29;;;;;;;14.57;3.30;;;9.10;99.90;;;;;;5018700;28;20803;-75
2021/03/21 12:30:03;;;;;;;16.90;4.67;;;9.10;99.90;;;;;;5002341;28;20528;-74
2021/03/21 12:32:36;;;;;;;13.03;4.50;;;9.20;99.90;;;;;;5017987;28;20458;-75
2021/03/21 12:35:07;;;;;;;13.57;4.87;;;9.20;99.90;;;;;;5035980;28;20476;-73
2021/03/21 12:37:51;;;;;;;14.33;5.30;;;9.20;99.90;;;;;;5018577;28;20883;-74
2021/03/21 12:40:20;;;;;;;17.03;5.93;;;9.30;99.90;;;;;;5019215;28;20442;-74
2021/03/21 12:42:48;;;;;;;18.20;5.70;;;9.30;99.90;;;;;;5035600;28;20885;-75
2021/03/21 12:45:19;;;;;;;16.13;5.20;;;9.40;99.90;;;;;;5018002;28;20528;-75
2021/03/21 12:47:57;;;;;;;23.57;6.17;;;9.40;99.90;;;;;;5002244;28;20448;-73
2021/03/21 12:50:37;;;;;;;13.43;6.27;;;9.40;99.90;;;;;;5019455;28;20528;-75
2021/03/21 12:53:06;;;;;;;14.77;5.90;;;9.30;99.90;;;;;;5018905;28;20443;-75
2021/03/21 12:55:33;;;;;;;16.53;5.97;;;9.30;99.90;;;;;;5001704;28;20500;-75
2021/03/21 12:58:00;;;;;;;17.37;6.07;;;9.30;99.90;;;;;;5035452;28;20540;-75
2021/03/21 13:00:31;;;;;;;12.73;5.50;;;9.30;99.90;;;;;;5035674;28;20540;-74
2021/03/21 13:03:02;;;;;;;21.20;5.00;;;9.30;99.90;;;;;;5001825;28;20537;-77
2021/03/21 13:05:31;;;;;;;23.97;6.67;;;9.30;99.90;;;;;;5035211;28;20579;-74
2021/03/21 13:07:59;;;;;;;14.60;4.37;;;9.40;99.90;;;;;;5017628;28;20441;-74
2021/03/21 13:10:27;;;;;;;14.77;4.00;;;9.40;99.90;;;;;;5017807;28;20447;-76
2021/03/21 13:12:55;;;;;;;16.40;5.83;;;9.40;99.90;;;;;;5016937;28;20833;-75
2021/03/21 13:15:22;;;;;;;12.93;4.50;;;9.40;99.90;;;;;;5017714;28;20489;-75
2021/03/21 13:17:49;;;;;;;14.53;5.00;;;9.50;99.90;;;;;;5017529;28;20434;-76
2021/03/21 13:20:20;;;;;;;13.67;4.10;;;9.40;99.90;;;;;;5017541;28;20844;-75
2021/03/21 13:22:47;;;;;;;11.97;4.10;;;9.50;99.90;;;;;;5034990;28;20477;-74